createdAt,value
2023-01-21T00:01:26.970Z,27.13
2023-01-21T00:03:53.420Z,29.50
2023-01-21T00:06:19.770Z,33.15
2023-01-21T00:08:46.251Z,33.17
2023-01-21T00:11:14.673Z,31.70
2023-01-21T00:13:41.476Z,26.23
2023-01-21T00:16:08.096Z,28.55
2023-01-21T00:18:34.561Z,32.40
2023-01-21T00:21:01.044Z,34.55
2023-01-21T00:23:27.631Z,33.40
2023-01-21T00:25:57.840Z,33.65
2023-01-21T00:28:24.142Z,36.40
2023-01-21T00:30:52.439Z,38.28
2023-01-21T00:33:18.975Z,34.92
2023-01-21T00:35:45.327Z,30.52
2023-01-21T00:38:11.634Z,32.28
2023-01-21T00:40:37.973Z,39.33
2023-01-21T00:43:04.283Z,34.88
2023-01-21T00:45:30.594Z,35.13
2023-01-21T00:47:56.971Z,35.05
2023-01-21T00:50:23.356Z,36.08
2023-01-21T00:52:49.751Z,31.77
2023-01-21T00:55:16.144Z,37.63
2023-01-21T00:57:42.804Z,33.47
2023-01-21T01:00:11.136Z,39.28
2023-01-21T01:02:37.810Z,40.72
2023-01-21T01:05:05.854Z,34.58
2023-01-21T01:07:32.184Z,30.55
2023-01-21T01:09:58.652Z,35.63
2023-01-21T01:12:25.048Z,31.00
2023-01-21T01:14:51.408Z,36.35
2023-01-21T01:17:17.695Z,36.40
2023-01-21T01:19:44.066Z,34.10
2023-01-21T01:22:10.445Z,35.50
2023-01-21T01:24:36.739Z,36.90
2023-01-21T01:27:03.063Z,36.50
2023-01-21T01:29:29.500Z,33.78
2023-01-21T01:31:55.969Z,37.35
2023-01-21T01:34:22.300Z,37.10
2023-01-21T01:36:48.975Z,35.90
2023-01-21T01:39:15.353Z,36.00
2023-01-21T01:41:41.685Z,39.50
2023-01-21T01:44:26.844Z,30.92
2023-01-21T01:46:55.696Z,33.95
2023-01-21T01:49:22.315Z,29.70
2023-01-21T01:51:48.692Z,35.80
2023-01-21T01:54:17.808Z,31.38
2023-01-21T01:56:46.688Z,40.78
2023-01-21T01:59:13.199Z,36.70
2023-01-21T02:01:39.626Z,37.47
2023-01-21T02:04:07.884Z,34.42
2023-01-21T02:06:34.469Z,36.10
2023-01-21T02:09:00.832Z,37.10
2023-01-21T02:11:27.196Z,37.08
2023-01-21T02:13:56.838Z,35.58
2023-01-21T02:16:31.838Z,36.90
2023-01-21T02:18:58.113Z,28.33
2023-01-21T02:21:25.196Z,28.73
2023-01-21T02:24:06.955Z,32.60
2023-01-21T02:26:33.258Z,36.47
2023-01-21T02:28:59.571Z,32.47
2023-01-21T02:31:45.878Z,31.33
2023-01-21T02:36:46.618Z,33.25
2023-01-21T02:39:17.736Z,30.10
2023-01-21T02:41:50.730Z,33.50
2023-01-21T02:44:21.685Z,31.70
2023-01-21T02:46:48.088Z,34.97
2023-01-21T02:49:23.795Z,31.33
2023-01-21T02:51:50.358Z,32.95
2023-01-21T02:54:36.707Z,28.42
2023-01-21T03:02:06.822Z,34.75
2023-01-21T03:04:46.123Z,29.77
2023-01-21T03:07:35.825Z,31.33
2023-01-21T03:10:18.045Z,35.25
2023-01-21T03:12:50.489Z,32.35
2023-01-21T03:15:51.264Z,30.92
2023-01-21T03:18:31.400Z,35.97
2023-01-21T03:21:24.024Z,24.92
2023-01-21T03:23:52.093Z,34.13
2023-01-21T03:26:20.543Z,35.05
2023-01-21T03:28:48.994Z,25.38
2023-01-21T03:31:23.795Z,26.55
2023-01-21T03:33:52.413Z,30.38
2023-01-21T03:36:26.562Z,28.00
2023-01-21T03:38:53.494Z,27.73
2023-01-21T03:41:21.927Z,20.77
2023-01-21T03:43:48.532Z,27.73
2023-01-21T03:46:14.978Z,25.58
2023-01-21T03:48:47.973Z,25.20
2023-01-21T03:51:19.461Z,20.08
2023-01-21T03:53:45.864Z,24.10
2023-01-21T03:56:12.231Z,25.30
2023-01-21T03:58:38.629Z,35.10
2023-01-21T04:01:05.120Z,30.27
2023-01-21T04:03:31.464Z,28.02
2023-01-21T04:05:57.791Z,27.33
2023-01-21T04:08:24.312Z,31.20
2023-01-21T04:10:50.617Z,26.33
2023-01-21T04:13:16.954Z,29.50
2023-01-21T04:15:43.283Z,36.47
2023-01-21T04:18:09.572Z,28.77
2023-01-21T04:20:35.902Z,32.25
2023-01-21T04:23:02.367Z,28.83
2023-01-21T04:25:28.696Z,28.95
2023-01-21T04:27:55.066Z,33.38
2023-01-21T04:30:21.476Z,29.80
2023-01-21T04:32:47.956Z,23.75
2023-01-21T04:35:14.359Z,22.55
2023-01-21T04:37:40.783Z,27.67
2023-01-21T04:40:07.348Z,23.08
2023-01-21T04:42:33.752Z,22.75
2023-01-21T04:45:00.234Z,33.70
2023-01-21T04:47:26.608Z,21.95
2023-01-21T04:49:53.599Z,26.00
2023-01-21T04:52:19.983Z,29.35
2023-01-21T04:54:46.399Z,17.35
2023-01-21T04:57:12.792Z,17.85
2023-01-21T04:59:39.156Z,18.45
2023-01-21T05:02:05.642Z,30.38
2023-01-21T05:04:32.935Z,21.67
2023-01-21T05:06:59.651Z,27.55
2023-01-21T05:09:26.047Z,31.98
2023-01-21T05:11:52.432Z,28.17
2023-01-21T05:14:18.872Z,19.30
2023-01-21T05:16:45.257Z,26.10
2023-01-21T05:19:11.855Z,28.55
2023-01-21T05:21:38.218Z,24.92
2023-01-21T05:24:04.663Z,23.30
2023-01-21T05:26:31.032Z,25.63
2023-01-21T05:28:57.494Z,28.40
2023-01-21T05:31:25.225Z,27.00
2023-01-21T05:33:51.699Z,17.08
2023-01-21T05:36:18.033Z,26.75
2023-01-21T05:38:44.368Z,17.27
2023-01-21T05:41:10.681Z,18.95
2023-01-21T05:43:37.058Z,13.60
2023-01-21T05:46:03.443Z,26.17
2023-01-21T05:48:29.848Z,18.15
2023-01-21T05:50:58.272Z,20.17
2023-01-21T05:53:25.220Z,13.73
2023-01-21T05:55:53.166Z,29.77
2023-01-21T05:58:19.760Z,28.17
2023-01-21T06:00:47.563Z,22.30
2023-01-21T06:03:14.687Z,22.33
2023-01-21T06:05:41.670Z,28.83
2023-01-21T06:08:08.741Z,18.73
2023-01-21T06:10:35.153Z,17.88
2023-01-21T06:13:01.587Z,24.80
2023-01-21T06:15:28.036Z,22.50
2023-01-21T06:17:54.520Z,23.25
2023-01-21T06:20:21.203Z,22.08
2023-01-21T06:22:47.730Z,22.20
2023-01-21T06:25:14.091Z,16.98
2023-01-21T06:27:40.531Z,21.30
2023-01-21T06:30:07.795Z,20.98
2023-01-21T06:32:34.731Z,23.92
2023-01-21T06:35:01.119Z,16.15
2023-01-21T06:37:27.578Z,24.05
2023-01-21T06:39:54.128Z,21.45
2023-01-21T06:42:20.595Z,20.48
2023-01-21T06:44:46.999Z,30.58
2023-01-21T06:47:13.569Z,26.90
2023-01-21T06:49:39.999Z,25.63
2023-01-21T06:52:06.739Z,22.20
2023-01-21T06:54:33.068Z,26.02
2023-01-21T06:56:59.524Z,25.52
2023-01-21T06:59:25.985Z,27.67
2023-01-21T07:01:52.419Z,32.67
2023-01-21T07:04:19.122Z,19.65
2023-01-21T07:06:45.479Z,26.25
2023-01-21T07:09:11.815Z,19.75
2023-01-21T07:11:38.204Z,26.98
2023-01-21T07:14:04.512Z,18.30
2023-01-21T07:16:30.866Z,27.92
2023-01-21T07:18:57.351Z,23.25
2023-01-21T07:21:26.628Z,21.85
2023-01-21T07:23:53.273Z,24.88
2023-01-21T07:26:19.864Z,27.10
2023-01-21T07:28:46.298Z,26.83
2023-01-21T07:31:13.790Z,22.83
2023-01-21T07:33:40.555Z,23.30
2023-01-21T07:36:07.033Z,12.02
2023-01-21T07:38:33.415Z,26.25
2023-01-21T07:40:59.808Z,25.42
2023-01-21T07:43:28.068Z,26.95
2023-01-21T07:45:55.301Z,23.38
2023-01-21T07:48:21.825Z,24.30
2023-01-21T07:50:48.280Z,20.00
2023-01-21T07:53:14.696Z,22.10
2023-01-21T07:55:41.136Z,20.83
2023-01-21T07:58:07.618Z,28.60
2023-01-21T08:00:33.993Z,22.25
2023-01-21T08:03:00.473Z,25.65
2023-01-21T08:05:26.804Z,27.85
2023-01-21T08:07:53.204Z,25.92
2023-01-21T08:10:22.155Z,27.27
2023-01-21T08:12:48.585Z,27.38
2023-01-21T08:15:15.317Z,29.77
2023-01-21T08:17:42.834Z,28.73
2023-01-21T08:20:10.163Z,24.77
2023-01-21T08:22:37.024Z,27.33
2023-01-21T08:25:04.026Z,27.52
2023-01-21T08:27:30.432Z,24.23
2023-01-21T08:29:56.816Z,28.83
2023-01-21T08:32:23.268Z,35.08
2023-01-21T08:34:50.298Z,32.75
2023-01-21T08:37:16.800Z,29.02
2023-01-21T08:39:43.140Z,28.52
2023-01-21T08:42:09.490Z,30.50
2023-01-21T08:44:36.018Z,29.30
2023-01-21T08:47:02.544Z,25.77
2023-01-21T08:49:28.866Z,19.65
2023-01-21T08:51:55.333Z,32.33
2023-01-21T08:54:21.705Z,30.52
2023-01-21T08:56:48.054Z,26.67
2023-01-21T08:59:14.466Z,26.77
2023-01-21T09:01:40.925Z,32.45
2023-01-21T09:04:07.408Z,29.83
2023-01-21T09:06:34.102Z,32.78
2023-01-21T09:09:00.573Z,32.45
2023-01-21T09:11:28.954Z,28.38
2023-01-21T09:13:57.943Z,28.35
2023-01-21T09:16:24.428Z,34.85
2023-01-21T09:18:51.009Z,35.35
2023-01-21T09:21:17.569Z,32.03
2023-01-21T09:23:44.407Z,36.30
2023-01-21T09:26:13.815Z,36.05
2023-01-21T09:28:42.316Z,34.42
2023-01-21T09:31:10.662Z,29.55
2023-01-21T09:33:38.339Z,28.63
2023-01-21T09:36:05.883Z,35.40
2023-01-21T09:38:32.499Z,30.08
2023-01-21T09:41:13.455Z,31.08
2023-01-21T09:43:42.585Z,31.20
2023-01-21T09:46:15.020Z,33.45
2023-01-21T09:48:42.746Z,31.70
2023-01-21T09:51:28.689Z,33.58
2023-01-21T09:53:56.069Z,28.40
2023-01-21T09:56:30.559Z,30.02
2023-01-21T09:59:18.055Z,29.42
2023-01-21T10:01:45.641Z,32.45
2023-01-21T10:04:34.144Z,34.55
2023-01-21T10:07:11.254Z,39.08
2023-01-21T10:09:49.791Z,33.65
2023-01-21T10:12:25.183Z,34.25
2023-01-21T10:14:59.641Z,35.75
2023-01-21T10:17:32.247Z,38.65
2023-01-21T10:20:17.122Z,38.30
2023-01-21T10:22:48.067Z,34.72
2023-01-21T10:25:14.500Z,37.08
2023-01-21T10:27:42.495Z,34.05
2023-01-21T10:30:17.916Z,28.50
2023-01-21T10:32:44.693Z,26.52
2023-01-21T10:35:20.670Z,30.60
2023-01-21T10:37:58.317Z,32.85
2023-01-21T10:40:43.969Z,30.63
2023-01-21T10:43:29.214Z,35.47
2023-01-21T10:45:58.608Z,33.25
2023-01-21T10:48:34.760Z,27.90
2023-01-21T10:51:06.057Z,29.48
2023-01-21T10:53:41.982Z,30.00
2023-01-21T11:03:38.717Z,20.15
2023-01-21T11:06:08.436Z,27.73
2023-01-21T11:08:34.856Z,25.20
2023-01-21T11:11:01.624Z,24.70
2023-01-21T11:13:28.019Z,25.58
2023-01-21T11:15:55.482Z,25.30
2023-01-21T11:18:25.795Z,19.20
2023-01-21T11:20:55.272Z,25.02
2023-01-21T11:23:28.237Z,25.73
2023-01-21T11:26:06.844Z,25.73
2023-01-21T11:28:34.667Z,18.02
2023-01-21T11:31:05.500Z,17.30
2023-01-21T11:33:32.183Z,25.15
2023-01-21T11:36:08.913Z,21.55
2023-01-21T11:38:35.992Z,24.90
2023-01-21T11:41:10.841Z,26.60
2023-01-21T11:44:00.206Z,18.00
2023-01-21T11:46:26.565Z,25.48
2023-01-21T11:49:08.202Z,21.55
2023-01-21T11:51:35.172Z,24.73
2023-01-21T11:54:08.759Z,24.70
2023-01-21T11:56:35.930Z,25.17
2023-01-21T11:59:10.248Z,22.13
2023-01-21T12:01:36.685Z,24.30
2023-01-21T12:04:03.114Z,23.27
2023-01-21T12:06:32.488Z,23.73
2023-01-21T12:09:02.558Z,23.27
2023-01-21T12:11:30.914Z,25.23
2023-01-21T12:13:58.040Z,24.33
2023-01-21T12:16:30.401Z,23.13
2023-01-21T12:19:05.556Z,19.25
2023-01-21T12:21:31.866Z,22.58
2023-01-21T12:24:04.021Z,25.10
2023-01-21T12:26:42.869Z,22.08
2023-01-21T12:29:27.832Z,24.17
2023-01-21T12:31:54.445Z,26.10
2023-01-21T12:34:31.066Z,25.77
2023-01-21T12:37:03.506Z,21.48
2023-01-21T12:39:33.208Z,26.95
2023-01-21T12:42:09.614Z,23.67
2023-01-21T12:44:50.082Z,21.75
2023-01-21T12:47:22.501Z,19.55
2023-01-21T12:49:52.610Z,27.85
2023-01-21T12:52:22.353Z,20.15
2023-01-21T12:54:52.800Z,17.58
2023-01-21T12:57:27.226Z,29.50
2023-01-21T12:59:57.110Z,28.88
2023-01-21T13:02:33.168Z,23.35
2023-01-21T13:04:59.465Z,24.73
2023-01-21T13:07:31.859Z,22.13
2023-01-21T13:09:58.175Z,29.70
2023-01-21T13:12:25.927Z,32.00
2023-01-21T13:14:58.844Z,28.88
2023-01-21T13:17:28.934Z,23.90
2023-01-21T13:19:55.382Z,21.83
2023-01-21T13:22:33.585Z,20.42
2023-01-21T13:25:03.204Z,28.00
2023-01-21T13:27:34.500Z,21.35
2023-01-21T13:30:17.510Z,25.58
2023-01-21T13:32:50.262Z,23.20
2023-01-21T13:35:19.715Z,21.50
2023-01-21T13:37:49.127Z,21.90
2023-01-21T13:40:25.752Z,23.58
2023-01-21T13:42:58.270Z,26.98
2023-01-21T13:45:27.698Z,24.88
2023-01-21T13:48:17.532Z,25.85
2023-01-21T13:50:46.712Z,24.25
2023-01-21T13:53:18.676Z,27.67
2023-01-21T13:56:05.638Z,20.85
2023-01-21T13:58:44.409Z,25.48
2023-01-21T14:01:14.502Z,14.75
2023-01-21T14:03:43.634Z,16.75
2023-01-21T14:06:19.912Z,19.05
2023-01-21T14:08:52.101Z,29.63
2023-01-21T14:11:18.498Z,24.15
2023-01-21T14:14:08.139Z,24.08
2023-01-21T14:16:53.046Z,19.08
2023-01-21T14:19:19.707Z,20.90
2023-01-21T14:21:55.149Z,19.77
2023-01-21T14:24:33.569Z,20.98
2023-01-21T14:27:19.703Z,17.40
2023-01-21T14:29:54.748Z,21.23
2023-01-21T14:32:28.377Z,19.25
2023-01-21T14:34:54.690Z,17.23
2023-01-21T14:37:29.044Z,18.73
2023-01-21T14:40:04.932Z,18.77
2023-01-21T14:45:04.181Z,29.23
2023-01-21T14:47:30.494Z,14.90
2023-01-21T14:49:58.114Z,20.30
2023-01-21T14:52:27.284Z,24.33
2023-01-21T14:54:53.740Z,24.10
2023-01-21T14:57:23.096Z,25.42
2023-01-21T14:59:50.542Z,24.92
2023-01-21T15:02:23.456Z,28.08
2023-01-21T15:04:54.757Z,28.08
2023-01-21T15:07:23.213Z,17.63
2023-01-21T15:09:54.313Z,21.40
2023-01-21T15:12:27.280Z,24.85
2023-01-21T15:14:58.469Z,17.15
2023-01-21T15:17:44.278Z,24.00
2023-01-21T15:20:29.020Z,21.63
2023-01-21T15:23:24.727Z,28.63
2023-01-21T15:26:03.344Z,32.72
2023-01-21T15:28:46.305Z,14.13
2023-01-21T15:31:32.639Z,18.08
2023-01-21T15:34:00.758Z,23.98
2023-01-21T15:36:31.783Z,31.67
2023-01-21T15:39:01.963Z,32.03
2023-01-21T15:41:28.575Z,29.75
2023-01-21T15:44:08.309Z,39.05
2023-01-21T15:46:46.813Z,42.95
2023-01-21T15:49:31.806Z,39.20
2023-01-21T15:52:01.251Z,38.72
2023-01-21T15:54:36.860Z,39.75
2023-01-21T15:57:03.277Z,37.80
2023-01-21T15:59:41.983Z,34.17
2023-01-21T16:02:11.377Z,26.15
2023-01-21T16:04:40.639Z,24.27
2023-01-21T16:07:06.978Z,19.35
2023-01-21T16:09:56.668Z,27.45
2023-01-21T16:12:22.993Z,29.90
2023-01-21T16:14:55.418Z,13.35
2023-01-21T16:17:24.652Z,27.80
2023-01-21T16:19:52.656Z,32.05
2023-01-21T16:22:21.673Z,22.08
2023-01-21T16:24:49.720Z,22.23
2023-01-21T16:27:20.210Z,31.00
2023-01-21T16:29:46.616Z,23.77
2023-01-21T16:32:16.990Z,9.55
2023-01-21T16:34:43.424Z,23.08
2023-01-21T16:37:13.998Z,22.73
2023-01-21T16:39:41.279Z,26.58
2023-01-21T16:42:20.623Z,29.60
2023-01-21T16:44:47.095Z,26.92
2023-01-21T16:47:20.227Z,18.85
2023-01-21T16:49:46.649Z,22.30
2023-01-21T16:52:19.832Z,20.98
2023-01-21T16:54:50.354Z,20.17
2023-01-21T16:57:16.665Z,15.63
2023-01-21T16:59:44.761Z,20.13
2023-01-21T17:02:31.549Z,24.02
2023-01-21T17:05:04.475Z,27.60
2023-01-21T17:07:37.840Z,26.35
2023-01-21T17:10:05.682Z,32.47
2023-01-21T17:12:33.657Z,38.35
2023-01-21T17:15:03.747Z,29.33
2023-01-21T17:17:31.777Z,35.83
2023-01-21T17:19:58.479Z,27.85
2023-01-21T17:22:26.468Z,27.60
2023-01-21T17:24:57.214Z,29.17
2023-01-21T17:27:24.730Z,25.95
2023-01-21T17:29:51.319Z,29.40
2023-01-21T17:32:20.804Z,27.58
2023-01-21T17:35:02.176Z,48.60
2023-01-21T17:37:47.062Z,29.65
2023-01-21T17:40:28.516Z,24.80
2023-01-21T17:42:55.319Z,38.22
2023-01-21T17:45:32.199Z,39.15
2023-01-21T17:48:14.868Z,30.50
2023-01-21T17:50:45.149Z,29.55
2023-01-21T17:53:17.065Z,32.10
2023-01-21T17:55:54.740Z,35.53
2023-01-21T17:58:36.456Z,29.92
2023-01-21T18:01:03.696Z,29.15
2023-01-21T18:03:30.023Z,32.17
2023-01-21T18:05:56.833Z,32.78
2023-01-21T18:08:23.161Z,34.08
2023-01-21T18:10:50.243Z,29.98
2023-01-21T18:13:17.623Z,36.55
2023-01-21T18:15:44.576Z,24.63
2023-01-21T18:18:21.810Z,37.63
2023-01-21T18:20:48.155Z,36.60
2023-01-21T18:23:18.197Z,33.08
2023-01-21T18:25:48.634Z,23.33
2023-01-21T18:28:19.342Z,26.48
2023-01-21T18:30:46.059Z,37.85
2023-01-21T18:33:12.736Z,42.22
2023-01-21T18:35:39.973Z,41.00
2023-01-21T18:38:10.305Z,34.53
2023-01-21T18:40:36.626Z,40.50
2023-01-21T18:43:02.980Z,29.65
2023-01-21T18:45:29.360Z,29.63
2023-01-21T18:47:56.757Z,29.42
2023-01-21T18:50:24.591Z,32.75
2023-01-21T18:52:50.964Z,34.97
2023-01-21T18:55:17.976Z,32.20
2023-01-21T18:57:46.605Z,38.63
2023-01-21T19:00:34.022Z,33.40
2023-01-21T19:03:01.592Z,43.70
2023-01-21T19:05:30.624Z,42.58
2023-01-21T19:07:57.330Z,43.60
2023-01-21T19:10:23.788Z,36.78
2023-01-21T19:12:50.198Z,39.72
2023-01-21T19:15:18.167Z,39.60
2023-01-21T19:17:45.068Z,38.83
2023-01-21T19:20:16.250Z,41.17
2023-01-21T19:22:42.840Z,40.17
2023-01-21T19:25:09.480Z,40.25
2023-01-21T19:27:37.963Z,37.13
2023-01-21T19:30:15.255Z,34.10
2023-01-21T19:32:41.805Z,39.88
2023-01-21T19:35:08.332Z,45.08
2023-01-21T19:37:34.748Z,41.97
2023-01-21T19:40:01.095Z,41.85
2023-01-21T19:42:27.560Z,36.92
2023-01-21T19:44:53.917Z,36.65
2023-01-21T19:47:24.650Z,41.45
2023-01-21T19:49:51.028Z,45.63
2023-01-21T19:52:17.365Z,51.15
2023-01-21T19:54:43.893Z,48.55
2023-01-21T19:57:14.387Z,47.40
2023-01-21T19:59:41.219Z,51.08
2023-01-21T20:02:09.318Z,46.72
2023-01-21T20:04:36.019Z,48.63
2023-01-21T20:07:02.387Z,45.50
2023-01-21T20:09:28.901Z,51.35
2023-01-21T20:11:55.291Z,41.65
2023-01-21T20:14:21.739Z,40.75
2023-01-21T20:16:50.072Z,60.53
2023-01-21T20:19:17.751Z,49.05
2023-01-21T20:21:59.702Z,47.55
2023-01-21T20:24:30.054Z,43.38
2023-01-21T20:26:56.699Z,47.05
2023-01-21T20:29:23.028Z,41.58
2023-01-21T20:31:49.455Z,45.40
2023-01-21T20:34:15.870Z,40.78
2023-01-21T20:36:44.244Z,43.40
2023-01-21T20:39:12.970Z,41.13
2023-01-21T20:41:40.852Z,43.83
2023-01-21T20:44:07.230Z,43.13
2023-01-21T20:46:33.800Z,41.58
2023-01-21T20:49:00.501Z,36.05
2023-01-21T20:51:26.923Z,42.50
2023-01-21T20:53:53.561Z,39.75
2023-01-21T20:56:19.901Z,54.33
2023-01-21T20:58:47.908Z,39.75
2023-01-21T21:01:15.473Z,37.95
2023-01-21T21:03:41.906Z,43.78
2023-01-21T21:06:12.041Z,48.60
2023-01-21T21:08:38.354Z,65.90
2023-01-21T21:11:04.812Z,59.97
2023-01-21T21:13:31.158Z,46.90
2023-01-21T21:15:57.508Z,43.42
2023-01-21T21:18:24.263Z,43.05
2023-01-21T21:20:51.715Z,53.60
2023-01-21T21:23:18.091Z,46.10
2023-01-21T21:25:45.412Z,43.92
2023-01-21T21:28:15.669Z,38.75
2023-01-21T21:30:42.257Z,51.72
2023-01-21T21:33:14.040Z,34.05
2023-01-21T21:35:40.854Z,52.13
2023-01-21T21:38:10.045Z,42.40
2023-01-21T21:40:36.480Z,41.67
2023-01-21T21:43:21.907Z,39.10
2023-01-21T21:46:07.176Z,40.90
2023-01-21T21:48:39.583Z,47.15
2023-01-21T21:51:06.676Z,56.47
2023-01-21T21:53:33.030Z,40.35
2023-01-21T21:56:03.328Z,43.13
2023-01-21T21:58:29.660Z,48.63
2023-01-21T22:00:56.096Z,46.15
2023-01-21T22:03:22.649Z,49.08
2023-01-21T22:05:53.501Z,35.78
2023-01-21T22:08:19.949Z,36.25
2023-01-21T22:10:47.087Z,41.65
2023-01-21T22:13:13.461Z,32.95
2023-01-21T22:15:39.845Z,34.42
2023-01-21T22:18:06.269Z,26.63
2023-01-21T22:20:32.635Z,28.40
2023-01-21T22:22:58.993Z,26.45
2023-01-21T22:25:25.464Z,23.98
2023-01-21T22:27:51.837Z,28.40
2023-01-21T22:30:18.332Z,26.20
2023-01-21T22:32:44.659Z,26.00
2023-01-21T22:35:10.969Z,22.88
2023-01-21T22:37:37.333Z,24.48
2023-01-21T22:40:03.917Z,25.58
2023-01-21T22:42:30.261Z,23.55
2023-01-21T22:44:56.647Z,23.55
2023-01-21T22:47:23.062Z,20.40
2023-01-21T22:49:49.364Z,20.73
2023-01-21T22:52:15.686Z,22.73
2023-01-21T22:54:42.068Z,18.52
2023-01-21T22:57:08.448Z,17.55
2023-01-21T22:59:34.883Z,17.13
2023-01-21T23:02:01.271Z,22.73
2023-01-21T23:04:27.751Z,21.27
2023-01-21T23:06:54.984Z,18.98
2023-01-21T23:09:21.624Z,19.23
2023-01-21T23:11:48.008Z,19.13
2023-01-21T23:14:14.388Z,17.63
2023-01-21T23:16:40.908Z,19.92
2023-01-21T23:19:07.249Z,19.75
2023-01-21T23:21:33.591Z,19.02
2023-01-21T23:24:00.046Z,19.55
2023-01-21T23:26:26.412Z,17.23
2023-01-21T23:28:56.429Z,16.77
2023-01-21T23:31:23.316Z,18.50
2023-01-21T23:33:53.439Z,19.15
2023-01-21T23:36:19.900Z,18.73
2023-01-21T23:38:46.345Z,16.92
2023-01-21T23:41:13.732Z,16.60
2023-01-21T23:43:40.435Z,17.25
2023-01-21T23:46:16.476Z,14.43
2023-01-21T23:48:43.114Z,17.27
2023-01-21T23:51:11.137Z,14.57
2023-01-21T23:53:37.619Z,17.52
2023-01-21T23:56:08.675Z,16.02
2023-01-21T23:58:35.342Z,19.80
